Weather observations for the past three days for
Downtown Holman Field
Metric (Imperial)
Date Time (cdt) Wind (kph) Vis. (km) Weather Sky Cond. Temperature (ºC) Relative Humidity Wind Chill (°C) Heat Index (°C) Pressure Precipitation (cm)
Air Dwpt 6 hour altimeter (cm) sea level (mb) 1 hr 3 hr 6 hr
Max. Min.
02 18:53 S 9 16.09 Fair CLR 30.6 18.3 31.7 27.2 48% 32 75.79 1009.9
02 17:53 E 7 16.09 Fair CLR 31.1 17.8 45% 32 75.79 1010.0
02 16:53 Vrbl 6 16.09 Fair CLR 31.1 17.8 45% 32 75.82 1010.1
02 15:53 SE 9 16.09 Fair CLR 31.1 17.8 45% 32 75.84 1010.3
02 14:53 Vrbl 6 16.09 Fair CLR 30 17.8 48% 31 75.9 1011.1
02 13:53 Calm 16.09 Fair CLR 28.3 17.2 51% 29 75.92 1011.4
02 12:53 SE 13 16.09 Fair CLR 27.8 17.8 27.8 18.9 55% 29 75.97 1012.3
02 11:53 S 6 16.09 Fair CLR 26.1 17.8 60% 27 76 1012.6
02 10:53 SE 9 16.09 Fair CLR 25 17.8 64% 26 76 1012.4
02 09:53 Calm 16.09 Fair CLR 22.8 17.8 74% 76 1012.5
02 08:53 Calm 16.09 Fair CLR 20.6 17.2 81% 76 1012.6
02 07:53 E 9 16.09 Fair CLR 19.4 17.2 87% 76.02 1012.7
02 06:53 SE 11 16.09 A Few Clouds FEW070 18.9 16.7 22.8 18.9 87% 76.02 1012.8 0.1
02 05:53 S 6 16.09 Fair CLR 18.9 16.7 87% 76.05 1013.2
02 04:53 S 11 16.09 Fair CLR 19.4 17.2 87% 76 1012.5
02 03:53 E 9 16.09 Fair CLR 20 17.2 84% 75.92 1011.3 0.1
02 02:53 SE 11 16.09 Light Rain FEW080 BKN110 20.6 17.2 81% 75.97 1012.1 0.08
02 01:53 S 20 16.09 Light Rain SCT080 BKN110 21.7 17.8 79% 76.15 1014.4 0.03
02 00:53 E 6 16.09 Fair CLR 22.2 16.1 29.4 21.7 68% 75.95 1011.8
01 23:53 N 6 16.09 Fair CLR 22.2 15 64% 76 1012.4
01 22:53 Calm 16.09 Fair CLR 21.7 16.7 73% 75.97 1012.3
01 21:53 Calm 16.09 Fair CLR 23.3 16.7 67% 76.02 1012.7
01 20:53 N 6 16.09 Fair CLR 26.7 13.9 45% 27 76 1012.5
01 19:53 N 7 16.09 Fair CLR 27.8 13.9 43% 28 75.97 0.0
01 18:53 W 13 16.09 A Few Clouds FEW110 28.9 14.4 33.3 28.9 41% 29 75.97 1012.3
01 17:53 SW 17 16.09 Fair CLR 29.4 16.1 45% 30 75.97 1012.1
01 16:53 SW 17 16.09 Fair CLR 30.6 13.3 35% 30 75.97 1012.1
01 15:53 S 13 16.09 Fair CLR 31.1 13.3 34% 30 75.95 1011.9
01 14:53 SW 13 16.09 Fair CLR 31.7 12.8 31% 31 76 1012.4
01 13:53 Vrbl 6 16.09 Fair CLR 32.2 12.8 31% 31 76 1012.5
01 12:53 SW 13 16.09 Fair CLR 30.6 13.3 31.7 17.8 35% 30 76.07 1013.3
01 11:53 Vrbl 9 16.09 Fair CLR 30 14.4 39% 30 76.1 1013.8
01 10:53 N 9 16.09 Fair CLR 27.8 16.7 51% 28 76.1 1013.9
01 09:53 Vrbl 7 16.09 Fair CLR 25.6 16.7 58% 26 76.12 1014.2
01 08:53 Calm 16.09 Fair CLR 23.3 18.3 74% 76.12 1014.4
01 06:53 Calm 16.09 Fair CLR 18.3 17.8 20.6 17.2 97% 76.1 1013.9
01 05:53 Calm 16.09 Fair CLR 17.8 17.2 96% 76.02 1013.0
01 04:53 Calm 16.09 Fair CLR 18.3 17.8 97% 76.02 1012.9
01 03:53 Calm 16.09 Fair CLR 18.9 17.8 93% 76.02 1012.7
01 02:53 Calm 16.09 Fair CLR 18.9 17.8 93% 76.02 1012.8
01 01:53 Calm 16.09 Fair CLR 20 18.3 90% 76.05 1013.2
01 00:53 Calm 16.09 Fair CLR 20 17.8 30.6 20 87% 76.05 1013.1
31 23:53 Calm 16.09 Fair CLR 21.1 17.2 79% 76 1012.4
31 22:53 Calm 16.09 Fair CLR 21.7 18.9 84% 76 1012.3
31 21:53 Calm 16.09 Fair CLR 22.8 18.3 76% 75.97 1012.2
31 20:53 Calm 16.09 Fair CLR 24.4 16.7 62% 25 75.95 1011.8
31 19:53 Calm 16.09 Fair CLR 26.7 15 49% 27 75.9 1011.1
31 18:53 N 9 16.09 Fair CLR 30.6 14.4 34.4 30.6 37% 30 75.87 1010.8
31 17:53 N 13 16.09 Fair CLR 32.2 13.3 32% 31 75.84 1010.6
31 16:53 N 11 16.09 Fair CLR 32.8 13.3 31% 32 75.82 1010.1
31 15:53 N 13 16.09 Fair CLR 33.3 17.2 38% 34 75.82 1009.9
31 14:53 Vrbl 6 16.09 Fair CLR 32.8 15 34% 32 75.82 1009.9
31 13:53 N 13 16.09 Fair CLR 32.2 17.2 41% 33 75.79 1009.7
31 12:53 NW 13 16.09 Fair CLR 31.1 21.7 31.1 20.6 57% 34 75.82 1010.0
31 11:53 NW 15 16.09 Fair CLR 29.4 22.2 65% 33 75.82 1010.2
31 10:53 NW 13 16.09 Fair CLR 28.9 22.2 67% 32 75.82 1010.0
31 09:53 W 9 16.09 Fair CLR 27.2 22.2 74% 30 75.74 1009.1
31 08:53 Vrbl 6 16.09 Fair CLR 25 21.7 82% 26 75.72 1008.7
31 07:53 S 6 16.09 Fair CLR 22.8 21.1 90% 75.69 1008.2
31 06:53 Calm 8.05 Fog/Mist CLR 20.6 20 23.3 20 96% 75.64 1007.6
31 05:53 SE 6 12.87 Fair CLR 21.1 20.6 97% 75.59 1007.0
31 04:53 SE 9 16.09 Fair CLR 21.7 20.6 94% 75.59 1007.1
31 03:53 SE 7 16.09 Fair CLR 22.2 20.6 91% 75.59 1007.1
31 02:53 SE 9 16.09 Fair CLR 22.8 20.6 87% 75.59 1006.9
31 01:53 SE 9 16.09 A Few Clouds FEW049 22.8 20.6 87% 75.62 1007.2
31 00:53 SE 13 16.09 Fair CLR 23.3 20.6 30 23.3 85% 75.64 1007.8
30 23:53 S 7 16.09 Mostly Cloudy BKN043 23.3 20 82% 75.69 1008.6
30 22:53 S 17 16.09 Fair CLR 23.9 20 79% 24 75.67 1008.3
30 21:53 S 20 16.09 Fair CLR 25 20 74% 26 75.69 1008.4
30 20:53 S 26 G 41 16.09 Fair CLR 26.1 20 69% 27 75.72 1008.7
30 19:53 S 22 16.09 Partly Cloudy SCT120 28.3 20 61% 30 75.64 1007.8
Date Time (cdt) Wind (kph) Vis. (km) Weather Sky Cond. Air Dwpt Max. Min. Relative Humidity Wind Chill (°C) Heat Index (°C) altimeter (cm) sea level (mb) 1 hr 3 hr 6 hr
6 hour
Temperature (ºC) Pressure Precipitation (cm)